Time;durP1;ratioP1;P1;durP2;ratioP2;P2;SDS_P1;SDS_P2;PMS_P1;PMS_P2;Temp;Humidity;BMP_temperature;BMP_pressure;BME280_temperature;BME280_humidity;BME280_pressure;Samples;Min_cycle;Max_cycle;Signal;HPM_P1;HPM_P2
2023/09/19 00:00:06;;;;;;;;;;;14.40;99.90;;;;;;5082498;28;19924;-66
2023/09/19 00:02:33;;;;;;;;;;;14.50;99.90;;;;;;5082480;28;20030;-66
2023/09/19 00:04:58;;;;;;;;;;;14.40;99.90;;;;;;5065904;28;19924;-65
2023/09/19 00:07:24;;;;;;;;;;;14.30;99.90;;;;;;5082954;28;19996;-66
2023/09/19 00:09:50;;;;;;;;;;;14.20;99.90;;;;;;5065837;28;19974;-66
2023/09/19 00:12:16;;;;;;;;;;;14.20;99.90;;;;;;5082268;28;19960;-66
2023/09/19 00:14:41;;;;;;;;;;;14.20;99.90;;;;;;5082143;28;20007;-65
2023/09/19 00:17:08;;;;;;;;;;;14.20;99.90;;;;;;5083559;28;19924;-66
2023/09/19 00:19:34;;;;;;;;;;;14.30;99.90;;;;;;5082501;28;20443;-65
2023/09/19 00:22:00;;;;;;;;;;;14.10;99.90;;;;;;5066210;28;19995;-65
2023/09/19 00:24:28;;;;;;;;;;;14.10;99.90;;;;;;5082532;28;19977;-65
2023/09/19 00:26:55;;;;;;;;;;;14.20;99.90;;;;;;5083462;28;19932;-64
2023/09/19 00:29:21;;;;;;;;;;;14.20;99.90;;;;;;5065205;28;20282;-64
2023/09/19 00:31:46;;;;;;;;;;;14.20;99.90;;;;;;5065186;28;19981;-65
2023/09/19 00:34:12;;;;;;;;;;;14.10;99.90;;;;;;5082319;28;20573;-65
2023/09/19 00:36:43;;;;;;;;;;;14.10;99.90;;;;;;5082101;28;20346;-64
2023/09/19 00:39:08;;;;;;;;;;;14.00;99.90;;;;;;5081811;28;19967;-64
2023/09/19 00:41:35;;;;;;;;;;;14.00;99.90;;;;;;5081699;28;20096;-64
2023/09/19 00:44:02;;;;;;;;;;;13.90;99.90;;;;;;5082072;28;20045;-64
2023/09/19 00:46:28;;;;;;;;;;;14.00;99.90;;;;;;5081609;28;20362;-64
2023/09/19 00:48:53;;;;;;;;;;;14.10;99.90;;;;;;5065479;28;19963;-65
2023/09/19 00:51:22;;;;;;;;;;;14.10;99.90;;;;;;5082764;28;20140;-65
2023/09/19 00:53:47;;;;;;;;;;;14.10;99.90;;;;;;5067311;28;20590;-66
2023/09/19 00:56:14;;;;;;;;;;;14.20;99.90;;;;;;5083402;28;19928;-66
2023/09/19 00:58:40;;;;;;;;;;;14.10;99.90;;;;;;5065812;28;20218;-65
2023/09/19 01:01:06;;;;;;;;;;;14.20;99.90;;;;;;5065665;28;20033;-65
2023/09/19 01:03:36;;;;;;;;;;;14.20;99.90;;;;;;5084536;28;20022;-65
2023/09/19 01:06:02;;;;;;;;;;;14.00;99.90;;;;;;5084517;28;19928;-64
2023/09/19 01:08:29;;;;;;;;;;;14.00;99.90;;;;;;5081024;28;20019;-65
2023/09/19 01:11:21;;;;;;;;;;;14.10;99.90;;;;;;5082408;28;20203;-65
2023/09/19 01:14:07;;;;;;;;;;;14.00;99.90;;;;;;5080454;28;20214;-65
2023/09/19 01:16:57;;;;;;;;;;;14.00;99.90;;;;;;5082048;28;20271;-66
2023/09/19 01:19:45;;;;;;;;;;;14.00;99.90;;;;;;5072382;28;19924;-65
2023/09/19 01:22:17;;;;;;;;;;;13.90;99.90;;;;;;5082459;28;19924;-64
2023/09/19 01:25:02;;;;;;;;;;;14.00;99.90;;;;;;5081687;28;19928;-64
2023/09/19 01:27:46;;;;;;;;;;;14.00;99.90;;;;;;5082376;28;20464;-64
2023/09/19 01:30:14;;;;;;;;;;;13.90;99.90;;;;;;5082334;28;19920;-64
2023/09/19 01:32:41;;;;;;;;;;;13.80;99.90;;;;;;5083919;28;20215;-64
2023/09/19 01:35:11;;;;;;;;;;;13.70;99.90;;;;;;5082508;28;19920;-64
2023/09/19 01:37:37;;;;;;;;;;;13.70;99.90;;;;;;5083636;28;19928;-64
2023/09/19 01:40:20;;;;;;;;;;;13.60;99.90;;;;;;5064802;28;19924;-64
2023/09/19 01:42:46;;;;;;;;;;;13.60;99.90;;;;;;5083810;28;20628;-64
2023/09/19 01:45:15;;;;;;;;;;;13.60;99.90;;;;;;5065245;28;20216;-64
2023/09/19 01:47:51;;;;;;;;;;;13.60;99.90;;;;;;5081915;28;20230;-64
2023/09/19 01:50:40;;;;;;;;;;;13.50;99.90;;;;;;5082178;28;20536;-63
2023/09/19 01:53:25;;;;;;;;;;;13.40;99.90;;;;;;5081946;28;20169;-63
2023/09/19 01:55:51;;;;;;;;;;;13.40;99.90;;;;;;5083390;28;20196;-64
2023/09/19 01:58:22;;;;;;;;;;;13.30;99.90;;;;;;5082915;28;19973;-64
2023/09/19 02:00:51;;;;;;;;;;;13.30;99.90;;;;;;5064736;28;19920;-64
2023/09/19 02:03:17;;;;;;;;;;;13.30;99.90;;;;;;5082217;28;20165;-64
2023/09/19 02:05:53;;;;;;;;;;;13.30;99.90;;;;;;5064723;28;19924;-64
2023/09/19 02:08:19;;;;;;;;;;;13.30;99.90;;;;;;5083112;28;19971;-64
2023/09/19 02:10:48;;;;;;;;;;;13.20;99.90;;;;;;5063848;28;19931;-64
2023/09/19 02:13:19;;;;;;;;;;;13.20;99.90;;;;;;5081899;28;19927;-64
2023/09/19 02:15:44;;;;;;;;;;;13.10;99.90;;;;;;5082000;28;20441;-64
2023/09/19 02:18:11;;;;;;;;;;;13.10;99.90;;;;;;5081038;28;19932;-65
2023/09/19 02:20:37;;;;;;;;;;;13.20;99.90;;;;;;5080909;28;20112;-65
2023/09/19 02:23:03;;;;;;;;;;;13.20;99.90;;;;;;5081514;28;19924;-64
2023/09/19 02:25:29;;;;;;;;;;;13.20;99.90;;;;;;5064822;28;19926;-64
2023/09/19 02:27:57;;;;;;;;;;;13.10;99.90;;;;;;5064905;28;20132;-65
2023/09/19 02:30:23;;;;;;;;;;;13.10;99.90;;;;;;5082233;28;20338;-65
2023/09/19 02:32:49;;;;;;;;;;;13.10;99.90;;;;;;5081756;28;20320;-65
2023/09/19 02:35:15;;;;;;;;;;;13.10;99.90;;;;;;5064413;28;20223;-65
2023/09/19 02:37:41;;;;;;;;;;;13.00;99.90;;;;;;5064745;28;19924;-65
2023/09/19 02:40:18;;;;;;;;;;;13.10;99.90;;;;;;5081509;28;19930;-64
2023/09/19 02:42:48;;;;;;;;;;;13.00;99.90;;;;;;5081409;28;20397;-64
2023/09/19 02:45:14;;;;;;;;;;;13.00;99.90;;;;;;5081198;28;20249;-65
2023/09/19 02:47:40;;;;;;;;;;;13.00;99.90;;;;;;5064402;28;20739;-65
2023/09/19 02:50:05;;;;;;;;;;;13.00;99.90;;;;;;5081677;28;19920;-65
2023/09/19 02:52:31;;;;;;;;;;;12.90;99.90;;;;;;5081261;28;19924;-64
2023/09/19 02:54:57;;;;;;;;;;;12.90;99.90;;;;;;5081848;28;19998;-65
2023/09/19 02:57:24;;;;;;;;;;;12.90;99.90;;;;;;5083095;28;19939;-64
2023/09/19 02:59:49;;;;;;;;;;;12.90;99.90;;;;;;5082601;28;19926;-64
2023/09/19 03:02:15;;;;;;;;;;;12.80;99.90;;;;;;5064088;28;20286;-64
2023/09/19 03:04:41;;;;;;;;;;;12.90;99.90;;;;;;5082392;28;19924;-64
2023/09/19 03:07:07;;;;;;;;;;;12.90;99.90;;;;;;5081125;28;20226;-64
2023/09/19 03:09:32;;;;;;;;;;;12.90;99.90;;;;;;5083013;28;19931;-64
2023/09/19 03:11:59;;;;;;;;;;;12.90;99.90;;;;;;5080955;28;20471;-64
2023/09/19 03:14:25;;;;;;;;;;;12.90;99.90;;;;;;5080962;28;20407;-64
2023/09/19 03:16:52;;;;;;;;;;;13.00;99.90;;;;;;5063481;28;20219;-65
2023/09/19 03:19:18;;;;;;;;;;;13.00;99.90;;;;;;5081955;28;19924;-64
2023/09/19 03:21:43;;;;;;;;;;;13.00;99.90;;;;;;5080614;28;19973;-64
2023/09/19 03:24:09;;;;;;;;;;;13.00;99.90;;;;;;5083028;28;19927;-64
2023/09/19 03:26:35;;;;;;;;;;;13.00;99.90;;;;;;5081052;28;20181;-64
2023/09/19 03:29:06;;;;;;;;;;;13.10;99.90;;;;;;5063408;28;19924;-64
2023/09/19 03:31:31;;;;;;;;;;;13.10;99.90;;;;;;5064725;28;20015;-64
2023/09/19 03:33:57;;;;;;;;;;;13.00;99.90;;;;;;5067896;28;20007;-63
2023/09/19 03:36:23;;;;;;;;;;;13.10;99.90;;;;;;5067052;28;19979;-64
2023/09/19 03:38:48;;;;;;;;;;;13.00;99.90;;;;;;5085048;28;19924;-64
2023/09/19 03:41:17;;;;;;;;;;;13.10;99.90;;;;;;5067895;28;19920;-63
2023/09/19 03:43:42;;;;;;;;;;;13.10;99.90;;;;;;5085783;28;19993;-64
2023/09/19 03:46:08;;;;;;;;;;;13.00;99.90;;;;;;5051068;28;19923;-64
2023/09/19 03:48:33;;;;;;;;;;;13.20;99.90;;;;;;5067626;28;20105;-65
2023/09/19 03:50:59;;;;;;;;;;;13.10;99.90;;;;;;5084762;28;20041;-64
2023/09/19 03:53:24;;;;;;;;;;;13.10;99.90;;;;;;5085263;28;20337;-65
2023/09/19 03:55:50;;;;;;;;;;;13.10;99.90;;;;;;5084754;28;19924;-64
2023/09/19 03:58:15;;;;;;;;;;;13.00;99.90;;;;;;5067377;28;20374;-64
2023/09/19 04:00:41;;;;;;;;;;;13.00;99.90;;;;;;5085691;28;20418;-64
2023/09/19 04:03:07;;;;;;;;;;;12.90;99.90;;;;;;5067720;28;20374;-64
2023/09/19 04:05:33;;;;;;;;;;;12.90;99.90;;;;;;5084058;28;19963;-65
2023/09/19 04:07:59;;;;;;;;;;;12.90;99.90;;;;;;5083987;28;19955;-65
2023/09/19 04:10:24;;;;;;;;;;;12.80;99.90;;;;;;5085495;28;20116;-66
2023/09/19 04:12:54;;;;;;;;;;;12.80;99.90;;;;;;5067479;28;19920;-64
2023/09/19 04:15:22;;;;;;;;;;;12.80;99.90;;;;;;5084486;28;19951;-65
2023/09/19 04:17:47;;;;;;;;;;;12.80;99.90;;;;;;5083426;28;20599;-64
2023/09/19 04:20:13;;;;;;;;;;;12.80;99.90;;;;;;5084176;28;20006;-65
2023/09/19 04:22:39;;;;;;;;;;;12.80;99.90;;;;;;5084345;28;20011;-65
2023/09/19 04:25:06;;;;;;;;;;;12.80;99.90;;;;;;5083684;28;20208;-65
2023/09/19 04:27:32;;;;;;;;;;;12.80;99.90;;;;;;5083511;28;20082;-65
2023/09/19 04:29:59;;;;;;;;;;;12.80;99.90;;;;;;5084070;28;20290;-65
2023/09/19 04:32:28;;;;;;;;;;;12.80;99.90;;;;;;5083276;28;20019;-65
2023/09/19 04:34:53;;;;;;;;;;;12.80;99.90;;;;;;5083391;28;19986;-64
2023/09/19 04:37:19;;;;;;;;;;;12.80;99.90;;;;;;5083881;28;19920;-64
2023/09/19 04:39:45;;;;;;;;;;;12.90;99.90;;;;;;5084209;28;20022;-64
2023/09/19 04:42:14;;;;;;;;;;;12.90;99.90;;;;;;5083319;28;19920;-64
2023/09/19 04:44:40;;;;;;;;;;;13.00;99.90;;;;;;5083164;28;20172;-65
2023/09/19 04:47:06;;;;;;;;;;;12.90;99.90;;;;;;5083509;28;20334;-65
2023/09/19 04:49:31;;;;;;;;;;;13.00;99.90;;;;;;5084630;28;20560;-64
2023/09/19 04:51:57;;;;;;;;;;;13.00;99.90;;;;;;5085173;28;19928;-64
2023/09/19 04:54:23;;;;;;;;;;;13.00;99.90;;;;;;5083154;28;19928;-65
2023/09/19 04:56:48;;;;;;;;;;;13.00;99.90;;;;;;5065814;28;19934;-65
2023/09/19 04:59:14;;;;;;;;;;;13.00;99.90;;;;;;5083020;28;20482;-64
2023/09/19 05:01:40;;;;;;;;;;;13.00;99.90;;;;;;5066321;28;19920;-64
2023/09/19 05:04:06;;;;;;;;;;;13.00;99.90;;;;;;5082665;28;19931;-65
2023/09/19 05:06:32;;;;;;;;;;;12.90;99.90;;;;;;5082738;28;19920;-65
2023/09/19 05:08:59;;;;;;;;;;;13.00;99.90;;;;;;5082409;28;20205;-65
2023/09/19 05:11:26;;;;;;;;;;;12.90;99.90;;;;;;5084073;28;19963;-65
2023/09/19 05:13:52;;;;;;;;;;;12.90;99.90;;;;;;5082905;28;20267;-64
2023/09/19 05:16:18;;;;;;;;;;;13.00;99.90;;;;;;5083724;28;19924;-65
2023/09/19 05:18:44;;;;;;;;;;;13.00;99.90;;;;;;5082337;28;19969;-64
2023/09/19 05:21:09;;;;;;;;;;;13.10;99.90;;;;;;5083800;28;20356;-65
2023/09/19 05:23:36;;;;;;;;;;;13.10;99.90;;;;;;5083079;28;19920;-64
2023/09/19 05:26:03;;;;;;;;;;;13.00;99.90;;;;;;5082730;28;19927;-64
2023/09/19 05:28:29;;;;;;;;;;;13.10;99.90;;;;;;5081238;28;20011;-64
2023/09/19 05:30:55;;;;;;;;;;;13.00;99.90;;;;;;5082573;28;20579;-63
2023/09/19 05:33:20;;;;;;;;;;;13.10;99.90;;;;;;5081624;28;19928;-65
2023/09/19 05:35:47;;;;;;;;;;;13.10;99.90;;;;;;5083253;28;19919;-65
2023/09/19 05:38:13;;;;;;;;;;;13.10;99.90;;;;;;5083184;28;20393;-65
2023/09/19 05:40:42;;;;;;;;;;;13.10;99.90;;;;;;5081768;28;20132;-65
2023/09/19 05:43:11;;;;;;;;;;;13.20;99.90;;;;;;5081691;28;20575;-65
2023/09/19 05:45:37;;;;;;;;;;;13.20;99.90;;;;;;5081683;28;19920;-65
2023/09/19 05:48:13;;;;;;;;;;;13.30;99.90;;;;;;5081428;28;19993;-64
2023/09/19 05:50:39;;;;;;;;;;;13.30;99.90;;;;;;5065086;28;20429;-65
2023/09/19 05:53:05;;;;;;;;;;;13.30;99.90;;;;;;5081196;28;19965;-64
2023/09/19 05:55:34;;;;;;;;;;;13.30;99.90;;;;;;5081720;28;19927;-65
2023/09/19 05:57:59;;;;;;;;;;;13.40;99.90;;;;;;5083444;28;20001;-65
2023/09/19 06:00:27;;;;;;;;;;;13.40;99.90;;;;;;5081574;28;20378;-64
2023/09/19 06:02:53;;;;;;;;;;;13.50;99.90;;;;;;5064747;28;20103;-65
2023/09/19 06:05:20;;;;;;;;;;;13.50;99.90;;;;;;5065357;28;20332;-65
2023/09/19 06:07:46;;;;;;;;;;;13.50;99.90;;;;;;5080997;28;19924;-65
2023/09/19 06:10:12;;;;;;;;;;;13.50;99.90;;;;;;5080778;28;19924;-64
2023/09/19 06:12:43;;;;;;;;;;;13.60;99.90;;;;;;5081030;28;19985;-65
2023/09/19 06:15:14;;;;;;;;;;;13.70;99.90;;;;;;5081520;28;19924;-64
2023/09/19 06:17:41;;;;;;;;;;;13.60;99.90;;;;;;5082876;28;19964;-64
2023/09/19 06:20:12;;;;;;;;;;;13.60;99.90;;;;;;5080799;28;19924;-64
2023/09/19 06:22:38;;;;;;;;;;;13.60;99.90;;;;;;5081055;28;19927;-65
2023/09/19 06:25:04;;;;;;;;;;;13.70;99.90;;;;;;5082498;28;19924;-64
2023/09/19 06:27:29;;;;;;;;;;;13.80;99.90;;;;;;5083437;28;20263;-64
2023/09/19 06:29:55;;;;;;;;;;;13.80;99.90;;;;;;5081906;28;19920;-65
2023/09/19 06:32:26;;;;;;;;;;;13.90;99.90;;;;;;5081022;28;19931;-64
2023/09/19 06:34:54;;;;;;;;;;;13.90;99.90;;;;;;5080644;28;19963;-64
2023/09/19 06:37:20;;;;;;;;;;;14.00;99.90;;;;;;5081160;28;20211;-64
2023/09/19 06:39:49;;;;;;;;;;;13.90;99.90;;;;;;5064070;28;19920;-65
2023/09/19 06:42:17;;;;;;;;;;;14.00;99.90;;;;;;5064548;28;19924;-64
2023/09/19 06:44:43;;;;;;;;;;;14.00;99.90;;;;;;5063725;28;19932;-65
2023/09/19 06:47:09;;;;;;;;;;;14.10;99.90;;;;;;5063699;28;19950;-64
2023/09/19 06:49:35;;;;;;;;;;;14.00;99.90;;;;;;5080389;28;20553;-65
2023/09/19 06:52:02;;;;;;;;;;;14.10;99.90;;;;;;5080723;28;20142;-65
2023/09/19 06:54:31;;;;;;;;;;;14.10;99.90;;;;;;5081483;28;20212;-65
2023/09/19 06:56:58;;;;;;;;;;;14.20;99.90;;;;;;5081883;28;19971;-64
2023/09/19 06:59:24;;;;;;;;;;;14.20;99.90;;;;;;5080028;28;19930;-63
2023/09/19 07:01:50;;;;;;;;;;;14.20;99.90;;;;;;5081013;28;20085;-64
2023/09/19 07:04:16;;;;;;;;;;;14.30;99.90;;;;;;5080800;28;19949;-63
2023/09/19 07:06:42;;;;;;;;;;;14.30;99.90;;;;;;5079379;28;19981;-64
2023/09/19 07:09:08;;;;;;;;;;;14.40;99.90;;;;;;5080276;28;20278;-64
2023/09/19 07:11:34;;;;;;;;;;;14.40;99.90;;;;;;5080799;28;20265;-64
2023/09/19 07:14:01;;;;;;;;;;;14.50;99.90;;;;;;5080059;28;20001;-64
2023/09/19 07:16:29;;;;;;;;;;;14.60;99.90;;;;;;5080063;28;20105;-64
2023/09/19 07:18:56;;;;;;;;;;;14.60;99.90;;;;;;5080267;28;19977;-64
2023/09/19 07:21:22;;;;;;;;;;;14.60;99.90;;;;;;5080580;28;19926;-65
2023/09/19 07:23:48;;;;;;;;;;;14.70;99.90;;;;;;5080503;28;20349;-64
2023/09/19 07:26:13;;;;;;;;;;;14.80;99.90;;;;;;5081714;28;20381;-65
2023/09/19 07:28:39;;;;;;;;;;;14.90;99.90;;;;;;5080102;28;19932;-64
2023/09/19 07:31:05;;;;;;;;;;;14.90;99.90;;;;;;5079868;28;19935;-64
2023/09/19 07:33:31;;;;;;;;;;;15.00;99.90;;;;;;5080457;28;19920;-63
2023/09/19 07:35:56;;;;;;;;;;;15.00;99.90;;;;;;5080521;28;19920;-64
2023/09/19 07:38:22;;;;;;;;;;;15.00;99.90;;;;;;5080035;28;19928;-65
2023/09/19 07:40:48;;;;;;;;;;;15.00;99.90;;;;;;5080320;28;19924;-65
2023/09/19 07:43:13;;;;;;;;;;;15.10;99.90;;;;;;5081388;28;19920;-64
2023/09/19 07:45:39;;;;;;;;;;;15.00;99.90;;;;;;5081085;28;19931;-64
2023/09/19 07:48:06;;;;;;;;;;;15.10;99.90;;;;;;5062975;28;20022;-65
2023/09/19 07:50:33;;;;;;;;;;;15.10;99.90;;;;;;5080019;28;19998;-64
2023/09/19 07:52:59;;;;;;;;;;;15.20;99.90;;;;;;5080295;28;20435;-64
2023/09/19 07:55:25;;;;;;;;;;;15.20;99.90;;;;;;5081464;28;19928;-64
2023/09/19 07:57:51;;;;;;;;;;;15.30;99.90;;;;;;5081128;28;19924;-64
2023/09/19 08:00:17;;;;;;;;;;;15.40;99.90;;;;;;5063060;28;19994;-64
2023/09/19 08:02:43;;;;;;;;;;;15.50;99.90;;;;;;5046172;28;20117;-64
2023/09/19 08:05:15;;;;;;;;;;;15.50;99.90;;;;;;5079563;28;19997;-65
2023/09/19 08:07:41;;;;;;;;;;;15.50;99.90;;;;;;5080851;28;19935;-65
2023/09/19 08:10:13;;;;;;;;;;;15.50;99.90;;;;;;5062573;28;19928;-64
2023/09/19 08:12:46;;;;;;;;;;;15.50;99.90;;;;;;5079113;28;19920;-65
2023/09/19 08:15:12;;;;;;;;;;;15.40;99.90;;;;;;5078947;28;20034;-64
2023/09/19 08:17:38;;;;;;;;;;;15.50;99.90;;;;;;5081596;28;19993;-64
2023/09/19 08:20:05;;;;;;;;;;;15.50;99.90;;;;;;5066115;28;19920;-63
2023/09/19 08:22:31;;;;;;;;;;;15.60;99.90;;;;;;5082802;28;19924;-65
2023/09/19 08:24:58;;;;;;;;;;;15.90;99.90;;;;;;5065779;28;19931;-64
2023/09/19 08:27:26;;;;;;;;;;;16.10;99.90;;;;;;5082635;28;19924;-65
2023/09/19 08:29:52;;;;;;;;;;;16.20;99.90;;;;;;5083826;28;19928;-64
2023/09/19 08:32:23;;;;;;;;;;;16.60;99.90;;;;;;5048860;28;20018;-64
2023/09/19 08:34:49;;;;;;;;;;;16.70;99.90;;;;;;5083082;28;19924;-64
2023/09/19 08:37:15;;;;;;;;;;;16.90;99.90;;;;;;5082265;28;19924;-64
2023/09/19 08:39:42;;;;;;;;;;;17.00;99.90;;;;;;5065579;28;20034;-65
2023/09/19 08:42:07;;;;;;;;;;;17.10;99.90;;;;;;5082245;28;19920;-64
2023/09/19 08:44:36;;;;;;;;;;;17.30;99.90;;;;;;5082124;28;19997;-64
2023/09/19 08:47:14;;;;;;;;;;;17.40;99.90;;;;;;5081955;28;19950;-64
2023/09/19 08:50:00;;;;;;;;;;;17.40;99.90;;;;;;5082088;28;19920;-64
2023/09/19 08:52:28;;;;;;;;;;;17.50;99.90;;;;;;5081758;28;19989;-65
2023/09/19 08:54:56;;;;;;;;;;;17.60;99.90;;;;;;5081904;28;19927;-65
2023/09/19 08:57:22;;;;;;;;;;;17.80;99.90;;;;;;5082072;28;20448;-65
2023/09/19 08:59:51;;;;;;;;;;;17.70;99.90;;;;;;5064633;28;20014;-64
2023/09/19 09:02:21;;;;;;;;;;;17.70;99.90;;;;;;5082361;28;20344;-65
2023/09/19 09:04:48;;;;;;;;;;;17.80;99.90;;;;;;5081690;28;20327;-66
2023/09/19 09:07:14;;;;;;;;;;;17.70;99.90;;;;;;5064697;28;20154;-64
2023/09/19 09:09:43;;;;;;;;;;;17.60;99.90;;;;;;5064893;28;20211;-65
2023/09/19 09:12:13;;;;;;;;;;;17.50;99.90;;;;;;5064554;28;20095;-64
2023/09/19 09:14:48;;;;;;;;;;;17.70;99.90;;;;;;5064231;28;19935;-63
2023/09/19 09:17:14;;;;;;;;;;;17.90;99.90;;;;;;5080553;28;19928;-64
2023/09/19 09:19:41;;;;;;;;;;;17.70;99.90;;;;;;5080891;28;19974;-64
2023/09/19 09:22:10;;;;;;;;;;;17.30;99.90;;;;;;5081064;28;20113;-64
2023/09/19 09:24:38;;;;;;;;;;;17.20;99.90;;;;;;5080650;28;19932;-63
2023/09/19 09:27:05;;;;;;;;;;;17.10;99.90;;;;;;5063806;28;20318;-64
2023/09/19 09:29:41;;;;;;;;;;;17.20;99.90;;;;;;5063029;28;19928;-64
2023/09/19 09:32:18;;;;;;;;;;;17.30;99.90;;;;;;5082119;28;20448;-64
2023/09/19 09:34:44;;;;;;;;;;;17.20;99.90;;;;;;5080078;28;19935;-65
2023/09/19 09:37:29;;;;;;;;;;;17.40;99.90;;;;;;5063676;28;19924;-64
2023/09/19 09:39:58;;;;;;;;;;;17.50;99.90;;;;;;5081948;28;20371;-65
2023/09/19 09:42:35;;;;;;;;;;;17.50;99.90;;;;;;5080727;28;20127;-63
2023/09/19 09:45:14;;;;;;;;;;;17.70;99.90;;;;;;5080171;28;20464;-64
2023/09/19 09:47:58;;;;;;;;;;;18.00;99.90;;;;;;5080129;28;20251;-65
2023/09/19 09:53:38;;;;;;;;;;;18.70;99.90;;;;;;5022053;28;20225;-64
2023/09/19 09:56:08;;;;;;;;;;;18.90;99.90;;;;;;5005276;28;19927;-63
2023/09/19 09:58:48;;;;;;;;;;;19.00;99.90;;;;;;5041539;28;19928;-63
2023/09/19 10:01:17;;;;;;;;;;;18.70;99.90;;;;;;5080401;28;19967;-64
2023/09/19 10:03:47;;;;;;;;;;;18.50;99.90;;;;;;5082322;28;19920;-63
2023/09/19 10:06:35;;;;;;;;;;;18.40;99.90;;;;;;5080243;28;19947;-64
2023/09/19 10:11:45;;;;;;;;;;;18.10;99.90;;;;;;5079821;28;19920;-64
2023/09/19 10:14:12;;;;;;;;;;;18.30;99.90;;;;;;5062712;28;19924;-63
2023/09/19 10:16:45;;;;;;;;;;;18.30;99.90;;;;;;5079252;28;20010;-64
2023/09/19 10:19:15;;;;;;;;;;;18.60;99.90;;;;;;5081420;28;20328;-63
2023/09/19 10:21:43;;;;;;;;;;;18.80;99.90;;;;;;5081204;28;19931;-63
2023/09/19 10:24:08;;;;;;;;;;;19.00;93.00;;;;;;5080165;28;19920;-64
2023/09/19 10:26:36;;;;;;;;;;;19.00;99.90;;;;;;5079685;28;20425;-64
2023/09/19 10:29:03;;;;;;;;;;;19.10;96.20;;;;;;5079121;28;19974;-63
2023/09/19 10:31:29;;;;;;;;;;;18.90;85.30;;;;;;5062734;28;19924;-64
2023/09/19 10:33:55;;;;;;;;;;;19.00;93.20;;;;;;5079594;28;20267;-63
2023/09/19 10:36:23;;;;;;;;;;;19.20;86.90;;;;;;5063005;28;19924;-63
2023/09/19 10:38:49;;;;;;;;;;;19.10;88.70;;;;;;5079367;28;19931;-63
2023/09/19 10:41:16;;;;;;;;;;;19.50;89.50;;;;;;5078850;28;20129;-63
2023/09/19 10:43:44;;;;;;;;;;;19.60;57.60;;;;;;5079342;28;20011;-64
2023/09/19 10:46:12;;;;;;;;;;;19.30;63.20;;;;;;5062564;28;20023;-64
2023/09/19 10:48:39;;;;;;;;;;;19.40;54.70;;;;;;5062574;28;19925;-65
2023/09/19 10:51:09;;;;;;;;;;;19.40;58.50;;;;;;5063061;28;19926;-64
2023/09/19 10:53:50;;;;;;;;;;;19.30;54.30;;;;;;5062179;28;19943;-64
2023/09/19 10:56:22;;;;;;;;;;;19.40;29.20;;;;;;5062302;28;20459;-64
2023/09/19 10:58:49;;;;;;;;;;;19.20;28.60;;;;;;5079614;28;19935;-65
2023/09/19 11:01:15;;;;;;;;;;;19.50;45.90;;;;;;5079657;28;20326;-64
2023/09/19 11:03:44;;;;;;;;;;;20.10;11.60;;;;;;5078657;28;20094;-65
2023/09/19 11:06:18;;;;;;;;;;;20.20;1.00;;;;;;5078965;28;19963;-66
2023/09/19 11:08:56;;;;;;;;;;;20.10;1.00;;;;;;5078510;28;20587;-65
2023/09/19 11:11:41;;;;;;;;;;;20.20;1.00;;;;;;5079026;28;19924;-65
2023/09/19 11:14:25;;;;;;;;;;;19.80;1.00;;;;;;5061725;28;20016;-65
2023/09/19 11:17:11;;;;;;;;;;;19.40;6.60;;;;;;5080634;28;20343;-65
2023/09/19 11:19:56;;;;;;;;;;;19.10;2.70;;;;;;5079140;28;20275;-65
2023/09/19 11:22:22;;;;;;;;;;;19.20;11.50;;;;;;5062411;28;20022;-65
2023/09/19 11:24:48;;;;;;;;;;;19.50;8.00;;;;;;5078800;28;19980;-65
2023/09/19 11:27:14;;;;;;;;;;;19.70;1.80;;;;;;5080240;28;20305;-65
2023/09/19 11:29:40;;;;;;;;;;;19.40;1.00;;;;;;5078916;28;19924;-65
2023/09/19 11:32:06;;;;;;;;;;;19.20;2.30;;;;;;5080016;28;20412;-65
2023/09/19 11:34:38;;;;;;;;;;;19.00;14.30;;;;;;5078397;28;20054;-65
2023/09/19 11:37:13;;;;;;;;;;;19.00;18.40;;;;;;5079062;28;19924;-64
2023/09/19 11:39:40;;;;;;;;;;;19.30;14.20;;;;;;5080244;28;20449;-65
2023/09/19 11:42:41;;;;;;;;;;;19.40;6.60;;;;;;5078420;28;20565;-65
2023/09/19 11:45:06;;;;;;;;;;;19.50;1.10;;;;;;5056979;28;19947;-65
2023/09/19 11:47:34;;;;;;;;;;;20.10;4.70;;;;;;5069673;28;19932;-64
2023/09/19 11:50:01;;;;;;;;;;;20.10;1.00;;;;;;5078271;28;19920;-66
2023/09/19 11:52:29;;;;;;;;;;;19.70;1.00;;;;;;5080721;28;20508;-66
2023/09/19 11:54:59;;;;;;;;;;;19.30;2.60;;;;;;5065412;28;20149;-66
2023/09/19 11:57:25;;;;;;;;;;;19.20;4.50;;;;;;5082749;28;19958;-65
2023/09/19 11:59:53;;;;;;;;;;;19.30;1.00;;;;;;5083643;28;20181;-64
2023/09/19 12:02:37;;;;;;;;;;;19.20;2.80;;;;;;5082226;28;20285;-65
2023/09/19 12:05:03;;;;;;;;;;;19.10;16.10;;;;;;5082221;28;19931;-64
2023/09/19 12:07:30;;;;;;;;;;;19.30;16.80;;;;;;5082270;28;19924;-65
2023/09/19 12:10:04;;;;;;;;;;;19.20;13.50;;;;;;5081982;28;20455;-65
2023/09/19 12:12:30;;;;;;;;;;;19.00;21.00;;;;;;5081466;28;20156;-66
2023/09/19 12:14:59;;;;;;;;;;;19.10;15.90;;;;;;5081651;28;20216;-65
2023/09/19 12:17:37;;;;;;;;;;;19.00;16.80;;;;;;5083250;28;20340;-65
2023/09/19 12:20:15;;;;;;;;;;;19.00;16.30;;;;;;5082433;28;19928;-65
2023/09/19 12:22:43;;;;;;;;;;;19.00;10.10;;;;;;5081760;28;19921;-65
2023/09/19 12:25:11;;;;;;;;;;;18.90;13.50;;;;;;5081842;28;20390;-64
2023/09/19 12:27:43;;;;;;;;;;;18.80;18.00;;;;;;5083504;28;20089;-63
2023/09/19 12:30:09;;;;;;;;;;;18.80;15.60;;;;;;5081881;28;19997;-64
2023/09/19 12:32:36;;;;;;;;;;;18.70;18.60;;;;;;5082902;28;19927;-65
2023/09/19 12:35:07;;;;;;;;;;;18.50;35.20;;;;;;5081942;28;20152;-65
2023/09/19 12:37:36;;;;;;;;;;;18.50;34.10;;;;;;5083402;28;19924;-64
2023/09/19 12:40:17;;;;;;;;;;;18.40;37.00;;;;;;5081807;28;19920;-64
2023/09/19 12:42:46;;;;;;;;;;;18.40;50.70;;;;;;5081286;28;19928;-65
2023/09/19 12:45:15;;;;;;;;;;;18.40;51.90;;;;;;5081283;28;19924;-64
2023/09/19 12:47:43;;;;;;;;;;;18.40;54.40;;;;;;5083272;28;19943;-65
2023/09/19 12:50:13;;;;;;;;;;;18.50;40.60;;;;;;5083058;28;19931;-65
2023/09/19 12:52:43;;;;;;;;;;;18.40;49.50;;;;;;5081771;28;19974;-64
2023/09/19 12:55:19;;;;;;;;;;;18.30;69.60;;;;;;5082514;28;19973;-65
2023/09/19 12:57:54;;;;;;;;;;;18.30;89.90;;;;;;5081321;28;19924;-63
2023/09/19 13:00:21;;;;;;;;;;;18.40;68.10;;;;;;5081883;28;20424;-65
2023/09/19 13:03:05;;;;;;;;;;;18.40;67.10;;;;;;5082443;28;20347;-65
2023/09/19 13:05:50;;;;;;;;;;;18.60;51.20;;;;;;5080040;28;20170;-65
2023/09/19 13:08:38;;;;;;;;;;;18.50;49.00;;;;;;5081451;28;19924;-64
2023/09/19 13:11:13;;;;;;;;;;;18.50;58.70;;;;;;5080400;28;20016;-64
2023/09/19 13:13:44;;;;;;;;;;;18.50;55.40;;;;;;5080850;28;19951;-65
2023/09/19 13:16:14;;;;;;;;;;;18.50;51.80;;;;;;5082370;28;19920;-65
2023/09/19 13:18:46;;;;;;;;;;;18.50;64.70;;;;;;5081638;28;19994;-67
2023/09/19 13:21:21;;;;;;;;;;;18.50;51.40;;;;;;5080382;28;19970;-65
2023/09/19 13:23:49;;;;;;;;;;;18.40;47.90;;;;;;5065534;28;19966;-65
2023/09/19 13:26:14;;;;;;;;;;;18.30;64.10;;;;;;5081019;28;19920;-65
2023/09/19 13:28:40;;;;;;;;;;;18.30;62.00;;;;;;5080429;28;20317;-65
2023/09/19 13:31:06;;;;;;;;;;;18.40;68.00;;;;;;5081916;28;20027;-65
2023/09/19 13:33:31;;;;;;;;;;;18.40;63.20;;;;;;5063522;28;20419;-65
2023/09/19 13:35:58;;;;;;;;;;;18.50;67.80;;;;;;5081935;28;19924;-65
2023/09/19 13:38:23;;;;;;;;;;;18.50;67.30;;;;;;5080694;28;19946;-65
2023/09/19 13:40:49;;;;;;;;;;;18.50;67.70;;;;;;5080832;28;19924;-65
2023/09/19 13:43:15;;;;;;;;;;;18.40;70.40;;;;;;5081599;28;19935;-66
2023/09/19 13:45:42;;;;;;;;;;;18.30;70.00;;;;;;5063039;28;20021;-65
2023/09/19 13:48:08;;;;;;;;;;;18.10;94.30;;;;;;5080332;28;20091;-66
2023/09/19 13:50:41;;;;;;;;;;;18.00;99.90;;;;;;5080300;28;20514;-64
2023/09/19 13:53:07;;;;;;;;;;;17.90;99.90;;;;;;5080907;28;20231;-65
2023/09/19 13:55:33;;;;;;;;;;;18.00;99.90;;;;;;5063998;28;19924;-64
2023/09/19 13:57:59;;;;;;;;;;;17.90;99.90;;;;;;5079800;28;19970;-64
2023/09/19 14:00:25;;;;;;;;;;;17.90;99.90;;;;;;5081151;28;19931;-64
2023/09/19 14:02:52;;;;;;;;;;;17.90;99.90;;;;;;5079866;28;19925;-64
2023/09/19 14:05:18;;;;;;;;;;;17.80;99.90;;;;;;5062906;28;20091;-65
2023/09/19 14:07:45;;;;;;;;;;;17.40;99.90;;;;;;5080033;28;20026;-65
2023/09/19 14:10:11;;;;;;;;;;;17.40;99.90;;;;;;5080266;28;19928;-65
2023/09/19 14:12:37;;;;;;;;;;;17.60;99.90;;;;;;5078893;28;19924;-64
2023/09/19 14:15:04;;;;;;;;;;;17.80;99.90;;;;;;5079379;28;19924;-65
2023/09/19 14:17:29;;;;;;;;;;;18.00;99.90;;;;;;5062771;28;20060;-64
2023/09/19 14:19:55;;;;;;;;;;;18.20;99.90;;;;;;5063411;28;19938;-65
2023/09/19 14:22:21;;;;;;;;;;;18.10;99.90;;;;;;5079955;28;20330;-65
2023/09/19 14:24:47;;;;;;;;;;;18.10;99.90;;;;;;5080662;28;19920;-66
2023/09/19 14:27:13;;;;;;;;;;;18.10;99.90;;;;;;5081270;28;19936;-64
2023/09/19 14:29:39;;;;;;;;;;;18.10;99.90;;;;;;5079844;28;19924;-64
2023/09/19 14:32:05;;;;;;;;;;;18.20;99.90;;;;;;5079616;28;19953;-65